sensor_id;sensor_type;location;lat;lon;timestamp;P1;durP1;ratioP1;P2;durP2;ratioP2
10465;SDS011;5280;42.600;23.556;2023-09-30T00:02:01;4.73;;;3.70;;
10465;SDS011;5280;42.600;23.556;2023-09-30T00:04:28;5.83;;;3.80;;
10465;SDS011;5280;42.600;23.556;2023-09-30T00:06:55;11.67;;;4.43;;
10465;SDS011;5280;42.600;23.556;2023-09-30T00:09:21;5.23;;;3.80;;
10465;SDS011;5280;42.600;23.556;2023-09-30T00:11:48;4.40;;;3.60;;
10465;SDS011;5280;42.600;23.556;2023-09-30T00:14:15;9.40;;;3.90;;
10465;SDS011;5280;42.600;23.556;2023-09-30T00:16:43;6.50;;;4.37;;
10465;SDS011;5280;42.600;23.556;2023-09-30T00:19:11;4.57;;;4.17;;
10465;SDS011;5280;42.600;23.556;2023-09-30T00:21:38;5.27;;;3.70;;
10465;SDS011;5280;42.600;23.556;2023-09-30T00:24:05;9.73;;;3.77;;
10465;SDS011;5280;42.600;23.556;2023-09-30T00:26:32;4.97;;;3.67;;
10465;SDS011;5280;42.600;23.556;2023-09-30T00:28:59;4.83;;;3.30;;
10465;SDS011;5280;42.600;23.556;2023-09-30T00:31:29;6.40;;;3.70;;
10465;SDS011;5280;42.600;23.556;2023-09-30T00:33:55;5.20;;;3.70;;
10465;SDS011;5280;42.600;23.556;2023-09-30T00:36:23;4.47;;;3.63;;
10465;SDS011;5280;42.600;23.556;2023-09-30T00:38:50;6.90;;;4.13;;
10465;SDS011;5280;42.600;23.556;2023-09-30T00:41:18;5.90;;;3.47;;
10465;SDS011;5280;42.600;23.556;2023-09-30T00:43:45;7.97;;;3.87;;
10465;SDS011;5280;42.600;23.556;2023-09-30T00:46:17;6.27;;;3.73;;
10465;SDS011;5280;42.600;23.556;2023-09-30T00:48:52;5.43;;;4.13;;
10465;SDS011;5280;42.600;23.556;2023-09-30T00:51:19;6.57;;;3.60;;
10465;SDS011;5280;42.600;23.556;2023-09-30T00:53:48;5.63;;;3.50;;
10465;SDS011;5280;42.600;23.556;2023-09-30T00:56:17;9.37;;;4.13;;
10465;SDS011;5280;42.600;23.556;2023-09-30T00:58:44;4.73;;;3.97;;
10465;SDS011;5280;42.600;23.556;2023-09-30T01:01:16;10.03;;;4.00;;
10465;SDS011;5280;42.600;23.556;2023-09-30T01:03:45;6.47;;;3.47;;
10465;SDS011;5280;42.600;23.556;2023-09-30T01:06:13;7.43;;;3.70;;
10465;SDS011;5280;42.600;23.556;2023-09-30T01:08:39;5.27;;;3.60;;
10465;SDS011;5280;42.600;23.556;2023-09-30T01:11:10;4.77;;;4.00;;
10465;SDS011;5280;42.600;23.556;2023-09-30T01:13:37;8.30;;;4.20;;
10465;SDS011;5280;42.600;23.556;2023-09-30T01:16:04;4.57;;;3.73;;
10465;SDS011;5280;42.600;23.556;2023-09-30T01:18:35;7.90;;;3.60;;
10465;SDS011;5280;42.600;23.556;2023-09-30T01:21:03;7.53;;;3.80;;
10465;SDS011;5280;42.600;23.556;2023-09-30T01:23:32;10.70;;;3.93;;
10465;SDS011;5280;42.600;23.556;2023-09-30T01:26:01;7.17;;;4.40;;
10465;SDS011;5280;42.600;23.556;2023-09-30T01:28:28;8.00;;;3.90;;
10465;SDS011;5280;42.600;23.556;2023-09-30T01:30:56;7.33;;;4.20;;
10465;SDS011;5280;42.600;23.556;2023-09-30T01:33:23;6.33;;;3.87;;
10465;SDS011;5280;42.600;23.556;2023-09-30T01:35:50;6.57;;;3.90;;
10465;SDS011;5280;42.600;23.556;2023-09-30T01:38:16;6.30;;;3.60;;
10465;SDS011;5280;42.600;23.556;2023-09-30T01:40:45;7.00;;;3.77;;
10465;SDS011;5280;42.600;23.556;2023-09-30T01:43:12;7.53;;;3.53;;
10465;SDS011;5280;42.600;23.556;2023-09-30T01:45:39;8.73;;;4.43;;
10465;SDS011;5280;42.600;23.556;2023-09-30T01:48:06;8.00;;;4.10;;
10465;SDS011;5280;42.600;23.556;2023-09-30T01:50:35;5.67;;;3.70;;
10465;SDS011;5280;42.600;23.556;2023-09-30T01:53:02;7.27;;;3.97;;
10465;SDS011;5280;42.600;23.556;2023-09-30T01:55:32;6.87;;;4.13;;
10465;SDS011;5280;42.600;23.556;2023-09-30T01:58:00;4.53;;;3.70;;
10465;SDS011;5280;42.600;23.556;2023-09-30T02:00:28;5.17;;;4.03;;
10465;SDS011;5280;42.600;23.556;2023-09-30T02:02:55;4.83;;;3.60;;
10465;SDS011;5280;42.600;23.556;2023-09-30T02:05:22;8.17;;;3.80;;
10465;SDS011;5280;42.600;23.556;2023-09-30T02:07:49;9.93;;;4.00;;
10465;SDS011;5280;42.600;23.556;2023-09-30T02:10:17;4.47;;;3.33;;
10465;SDS011;5280;42.600;23.556;2023-09-30T02:12:44;6.73;;;4.10;;
10465;SDS011;5280;42.600;23.556;2023-09-30T02:15:13;5.00;;;3.60;;
10465;SDS011;5280;42.600;23.556;2023-09-30T02:17:41;5.73;;;3.90;;
10465;SDS011;5280;42.600;23.556;2023-09-30T02:20:10;7.03;;;3.97;;
10465;SDS011;5280;42.600;23.556;2023-09-30T02:22:41;5.97;;;4.37;;
10465;SDS011;5280;42.600;23.556;2023-09-30T02:25:10;4.57;;;3.60;;
10465;SDS011;5280;42.600;23.556;2023-09-30T02:27:38;5.33;;;3.80;;
10465;SDS011;5280;42.600;23.556;2023-09-30T02:30:07;4.57;;;3.90;;
10465;SDS011;5280;42.600;23.556;2023-09-30T02:32:36;11.57;;;4.37;;
10465;SDS011;5280;42.600;23.556;2023-09-30T02:35:05;7.00;;;3.77;;
10465;SDS011;5280;42.600;23.556;2023-09-30T02:37:36;8.83;;;4.03;;
10465;SDS011;5280;42.600;23.556;2023-09-30T02:40:04;9.53;;;4.10;;
10465;SDS011;5280;42.600;23.556;2023-09-30T02:42:34;7.00;;;4.00;;
10465;SDS011;5280;42.600;23.556;2023-09-30T02:45:04;8.70;;;3.93;;
10465;SDS011;5280;42.600;23.556;2023-09-30T02:47:33;7.73;;;4.20;;
10465;SDS011;5280;42.600;23.556;2023-09-30T02:50:02;5.90;;;4.43;;
10465;SDS011;5280;42.600;23.556;2023-09-30T02:52:30;8.40;;;4.17;;
10465;SDS011;5280;42.600;23.556;2023-09-30T02:54:57;9.43;;;4.50;;
10465;SDS011;5280;42.600;23.556;2023-09-30T02:57:24;8.73;;;4.20;;
10465;SDS011;5280;42.600;23.556;2023-09-30T02:59:52;4.93;;;3.77;;
10465;SDS011;5280;42.600;23.556;2023-09-30T03:02:21;4.50;;;3.63;;
10465;SDS011;5280;42.600;23.556;2023-09-30T03:04:48;7.13;;;3.87;;
10465;SDS011;5280;42.600;23.556;2023-09-30T03:07:17;7.17;;;4.13;;
10465;SDS011;5280;42.600;23.556;2023-09-30T03:09:45;6.93;;;3.60;;
10465;SDS011;5280;42.600;23.556;2023-09-30T03:12:12;6.67;;;3.90;;
10465;SDS011;5280;42.600;23.556;2023-09-30T03:14:40;5.47;;;3.70;;
10465;SDS011;5280;42.600;23.556;2023-09-30T03:17:07;6.17;;;3.87;;
10465;SDS011;5280;42.600;23.556;2023-09-30T03:19:37;4.33;;;3.50;;
10465;SDS011;5280;42.600;23.556;2023-09-30T03:22:04;8.33;;;4.00;;
10465;SDS011;5280;42.600;23.556;2023-09-30T03:24:32;7.27;;;3.90;;
10465;SDS011;5280;42.600;23.556;2023-09-30T03:27:00;4.20;;;3.80;;
10465;SDS011;5280;42.600;23.556;2023-09-30T03:29:26;4.67;;;3.43;;
10465;SDS011;5280;42.600;23.556;2023-09-30T03:31:53;4.33;;;3.77;;
10465;SDS011;5280;42.600;23.556;2023-09-30T03:34:20;9.20;;;4.20;;
10465;SDS011;5280;42.600;23.556;2023-09-30T03:36:47;7.60;;;3.67;;
10465;SDS011;5280;42.600;23.556;2023-09-30T03:39:14;4.17;;;3.73;;
10465;SDS011;5280;42.600;23.556;2023-09-30T03:41:43;6.87;;;3.90;;
10465;SDS011;5280;42.600;23.556;2023-09-30T03:44:10;4.83;;;3.47;;
10465;SDS011;5280;42.600;23.556;2023-09-30T03:46:37;4.07;;;3.67;;
10465;SDS011;5280;42.600;23.556;2023-09-30T03:49:04;5.90;;;3.53;;
10465;SDS011;5280;42.600;23.556;2023-09-30T03:51:33;4.67;;;3.37;;
10465;SDS011;5280;42.600;23.556;2023-09-30T03:54:02;6.73;;;3.77;;
10465;SDS011;5280;42.600;23.556;2023-09-30T03:56:29;4.47;;;3.20;;
10465;SDS011;5280;42.600;23.556;2023-09-30T03:58:57;4.97;;;3.37;;
10465;SDS011;5280;42.600;23.556;2023-09-30T04:01:24;10.53;;;3.77;;
10465;SDS011;5280;42.600;23.556;2023-09-30T04:03:52;5.63;;;3.50;;
10465;SDS011;5280;42.600;23.556;2023-09-30T04:06:20;6.10;;;3.70;;
10465;SDS011;5280;42.600;23.556;2023-09-30T04:08:46;4.77;;;3.63;;
10465;SDS011;5280;42.600;23.556;2023-09-30T04:11:13;8.40;;;4.10;;
10465;SDS011;5280;42.600;23.556;2023-09-30T04:13:43;5.63;;;3.60;;
10465;SDS011;5280;42.600;23.556;2023-09-30T04:16:11;3.53;;;3.23;;
10465;SDS011;5280;42.600;23.556;2023-09-30T04:18:38;4.63;;;3.40;;
10465;SDS011;5280;42.600;23.556;2023-09-30T04:21:06;6.57;;;3.87;;
10465;SDS011;5280;42.600;23.556;2023-09-30T04:23:33;6.83;;;3.97;;
10465;SDS011;5280;42.600;23.556;2023-09-30T04:26:01;5.83;;;3.93;;
10465;SDS011;5280;42.600;23.556;2023-09-30T04:28:28;7.23;;;3.50;;
10465;SDS011;5280;42.600;23.556;2023-09-30T04:30:55;4.27;;;3.67;;
10465;SDS011;5280;42.600;23.556;2023-09-30T04:33:24;4.80;;;3.80;;
10465;SDS011;5280;42.600;23.556;2023-09-30T04:35:51;9.77;;;4.57;;
10465;SDS011;5280;42.600;23.556;2023-09-30T04:38:18;6.83;;;3.87;;
10465;SDS011;5280;42.600;23.556;2023-09-30T04:40:45;5.10;;;3.80;;
10465;SDS011;5280;42.600;23.556;2023-09-30T04:43:13;5.07;;;3.57;;
10465;SDS011;5280;42.600;23.556;2023-09-30T04:45:40;6.23;;;3.53;;
10465;SDS011;5280;42.600;23.556;2023-09-30T04:48:07;5.97;;;3.47;;
10465;SDS011;5280;42.600;23.556;2023-09-30T04:50:35;4.63;;;3.37;;
10465;SDS011;5280;42.600;23.556;2023-09-30T04:53:09;6.37;;;3.80;;
10465;SDS011;5280;42.600;23.556;2023-09-30T04:55:38;4.33;;;3.53;;
10465;SDS011;5280;42.600;23.556;2023-09-30T04:58:04;5.87;;;3.70;;
10465;SDS011;5280;42.600;23.556;2023-09-30T05:00:31;5.60;;;3.60;;
10465;SDS011;5280;42.600;23.556;2023-09-30T05:03:00;5.00;;;3.50;;
10465;SDS011;5280;42.600;23.556;2023-09-30T05:05:26;4.87;;;3.57;;
10465;SDS011;5280;42.600;23.556;2023-09-30T05:07:55;6.57;;;3.30;;
10465;SDS011;5280;42.600;23.556;2023-09-30T05:10:23;6.47;;;4.00;;
10465;SDS011;5280;42.600;23.556;2023-09-30T05:12:49;5.17;;;4.00;;
10465;SDS011;5280;42.600;23.556;2023-09-30T05:15:20;6.63;;;3.70;;
10465;SDS011;5280;42.600;23.556;2023-09-30T05:17:48;4.60;;;3.70;;
10465;SDS011;5280;42.600;23.556;2023-09-30T05:20:15;7.97;;;3.90;;
10465;SDS011;5280;42.600;23.556;2023-09-30T05:22:43;4.53;;;3.43;;
10465;SDS011;5280;42.600;23.556;2023-09-30T05:25:12;10.23;;;3.40;;
10465;SDS011;5280;42.600;23.556;2023-09-30T05:27:41;5.13;;;3.70;;
10465;SDS011;5280;42.600;23.556;2023-09-30T05:30:13;8.03;;;4.00;;
10465;SDS011;5280;42.600;23.556;2023-09-30T05:32:41;7.20;;;4.00;;
10465;SDS011;5280;42.600;23.556;2023-09-30T05:35:08;10.83;;;4.00;;
10465;SDS011;5280;42.600;23.556;2023-09-30T05:37:38;6.80;;;4.17;;
10465;SDS011;5280;42.600;23.556;2023-09-30T05:40:07;8.13;;;4.07;;
10465;SDS011;5280;42.600;23.556;2023-09-30T05:42:46;7.23;;;3.80;;
10465;SDS011;5280;42.600;23.556;2023-09-30T05:45:13;5.60;;;3.77;;
10465;SDS011;5280;42.600;23.556;2023-09-30T05:47:40;6.23;;;3.50;;
10465;SDS011;5280;42.600;23.556;2023-09-30T05:50:09;4.83;;;3.80;;
10465;SDS011;5280;42.600;23.556;2023-09-30T05:52:39;5.37;;;3.70;;
10465;SDS011;5280;42.600;23.556;2023-09-30T05:55:06;3.83;;;3.43;;
10465;SDS011;5280;42.600;23.556;2023-09-30T05:57:33;5.10;;;3.30;;
10465;SDS011;5280;42.600;23.556;2023-09-30T06:00:03;7.27;;;4.23;;
10465;SDS011;5280;42.600;23.556;2023-09-30T06:02:45;33.60;;;23.83;;
10465;SDS011;5280;42.600;23.556;2023-09-30T06:05:12;119.77;;;83.50;;
10465;SDS011;5280;42.600;23.556;2023-09-30T06:07:40;110.83;;;82.40;;
10465;SDS011;5280;42.600;23.556;2023-09-30T06:10:10;72.57;;;52.90;;
10465;SDS011;5280;42.600;23.556;2023-09-30T06:12:37;32.17;;;22.60;;
10465;SDS011;5280;42.600;23.556;2023-09-30T06:15:07;10.90;;;4.77;;
10465;SDS011;5280;42.600;23.556;2023-09-30T06:17:34;8.07;;;5.80;;
10465;SDS011;5280;42.600;23.556;2023-09-30T06:20:03;9.60;;;5.47;;
10465;SDS011;5280;42.600;23.556;2023-09-30T06:22:36;13.30;;;4.73;;
10465;SDS011;5280;42.600;23.556;2023-09-30T06:25:04;9.67;;;5.00;;
10465;SDS011;5280;42.600;23.556;2023-09-30T06:27:31;7.43;;;4.67;;
10465;SDS011;5280;42.600;23.556;2023-09-30T06:29:58;7.40;;;4.97;;
10465;SDS011;5280;42.600;23.556;2023-09-30T06:32:26;6.93;;;4.93;;
10465;SDS011;5280;42.600;23.556;2023-09-30T06:34:53;6.50;;;4.50;;
10465;SDS011;5280;42.600;23.556;2023-09-30T06:37:20;9.27;;;4.60;;
10465;SDS011;5280;42.600;23.556;2023-09-30T06:39:47;8.13;;;5.07;;
10465;SDS011;5280;42.600;23.556;2023-09-30T06:42:14;14.60;;;4.83;;
10465;SDS011;5280;42.600;23.556;2023-09-30T06:44:42;9.30;;;4.93;;
10465;SDS011;5280;42.600;23.556;2023-09-30T06:47:08;10.83;;;5.40;;
10465;SDS011;5280;42.600;23.556;2023-09-30T06:49:38;6.40;;;4.87;;
10465;SDS011;5280;42.600;23.556;2023-09-30T06:52:05;8.80;;;4.70;;
10465;SDS011;5280;42.600;23.556;2023-09-30T06:54:32;8.63;;;4.67;;
10465;SDS011;5280;42.600;23.556;2023-09-30T06:56:59;11.27;;;4.77;;
10465;SDS011;5280;42.600;23.556;2023-09-30T06:59:26;10.07;;;4.67;;
10465;SDS011;5280;42.600;23.556;2023-09-30T07:01:52;10.17;;;5.00;;
10465;SDS011;5280;42.600;23.556;2023-09-30T07:04:19;7.87;;;4.53;;
10465;SDS011;5280;42.600;23.556;2023-09-30T07:06:48;8.43;;;4.83;;
10465;SDS011;5280;42.600;23.556;2023-09-30T07:09:14;5.33;;;4.43;;
10465;SDS011;5280;42.600;23.556;2023-09-30T07:11:41;5.67;;;4.30;;
10465;SDS011;5280;42.600;23.556;2023-09-30T07:14:09;9.43;;;4.57;;
10465;SDS011;5280;42.600;23.556;2023-09-30T07:16:36;7.77;;;4.00;;
10465;SDS011;5280;42.600;23.556;2023-09-30T07:19:03;9.43;;;4.73;;
10465;SDS011;5280;42.600;23.556;2023-09-30T07:21:30;13.60;;;4.43;;
10465;SDS011;5280;42.600;23.556;2023-09-30T07:24:00;5.83;;;4.27;;
10465;SDS011;5280;42.600;23.556;2023-09-30T07:26:27;8.30;;;4.67;;
10465;SDS011;5280;42.600;23.556;2023-09-30T07:28:54;5.90;;;4.50;;
10465;SDS011;5280;42.600;23.556;2023-09-30T07:31:21;5.60;;;4.00;;
10465;SDS011;5280;42.600;23.556;2023-09-30T07:33:49;6.13;;;4.33;;
10465;SDS011;5280;42.600;23.556;2023-09-30T07:36:15;11.63;;;3.93;;
10465;SDS011;5280;42.600;23.556;2023-09-30T07:38:43;6.93;;;4.00;;
10465;SDS011;5280;42.600;23.556;2023-09-30T07:41:11;8.40;;;4.90;;
10465;SDS011;5280;42.600;23.556;2023-09-30T07:43:37;9.77;;;4.57;;
10465;SDS011;5280;42.600;23.556;2023-09-30T07:46:07;7.17;;;3.90;;
10465;SDS011;5280;42.600;23.556;2023-09-30T07:48:34;6.97;;;4.80;;
10465;SDS011;5280;42.600;23.556;2023-09-30T07:51:01;9.73;;;4.00;;
10465;SDS011;5280;42.600;23.556;2023-09-30T07:53:29;10.57;;;4.40;;
10465;SDS011;5280;42.600;23.556;2023-09-30T07:55:56;9.50;;;4.50;;
10465;SDS011;5280;42.600;23.556;2023-09-30T07:58:24;5.33;;;3.70;;
10465;SDS011;5280;42.600;23.556;2023-09-30T08:00:51;8.27;;;4.43;;
10465;SDS011;5280;42.600;23.556;2023-09-30T08:03:18;4.80;;;4.00;;
10465;SDS011;5280;42.600;23.556;2023-09-30T08:05:45;6.43;;;3.93;;
10465;SDS011;5280;42.600;23.556;2023-09-30T08:08:12;5.30;;;3.80;;
10465;SDS011;5280;42.600;23.556;2023-09-30T08:10:39;7.50;;;3.90;;
10465;SDS011;5280;42.600;23.556;2023-09-30T08:13:06;10.93;;;4.27;;
10465;SDS011;5280;42.600;23.556;2023-09-30T08:15:36;6.73;;;4.17;;
10465;SDS011;5280;42.600;23.556;2023-09-30T08:18:03;5.77;;;3.77;;
10465;SDS011;5280;42.600;23.556;2023-09-30T08:20:31;9.53;;;3.60;;
10465;SDS011;5280;42.600;23.556;2023-09-30T08:23:01;4.17;;;3.57;;
10465;SDS011;5280;42.600;23.556;2023-09-30T08:25:28;8.57;;;4.20;;
10465;SDS011;5280;42.600;23.556;2023-09-30T08:27:55;6.63;;;4.03;;
10465;SDS011;5280;42.600;23.556;2023-09-30T08:30:22;7.73;;;4.00;;
10465;SDS011;5280;42.600;23.556;2023-09-30T08:32:50;9.13;;;3.90;;
10465;SDS011;5280;42.600;23.556;2023-09-30T08:35:17;12.67;;;5.00;;
10465;SDS011;5280;42.600;23.556;2023-09-30T08:37:44;13.97;;;4.90;;
10465;SDS011;5280;42.600;23.556;2023-09-30T08:40:11;8.77;;;4.27;;
10465;SDS011;5280;42.600;23.556;2023-09-30T08:42:38;12.47;;;5.23;;
10465;SDS011;5280;42.600;23.556;2023-09-30T08:45:07;11.17;;;5.17;;
10465;SDS011;5280;42.600;23.556;2023-09-30T08:47:36;8.93;;;4.40;;
10465;SDS011;5280;42.600;23.556;2023-09-30T08:50:05;12.90;;;5.30;;
10465;SDS011;5280;42.600;23.556;2023-09-30T08:52:35;8.23;;;5.57;;
10465;SDS011;5280;42.600;23.556;2023-09-30T08:55:05;8.77;;;5.43;;
10465;SDS011;5280;42.600;23.556;2023-09-30T08:57:33;9.33;;;5.40;;
10465;SDS011;5280;42.600;23.556;2023-09-30T09:00:05;6.97;;;5.10;;
10465;SDS011;5280;42.600;23.556;2023-09-30T09:02:33;28.40;;;23.23;;
10465;SDS011;5280;42.600;23.556;2023-09-30T09:05:01;13.83;;;11.10;;
10465;SDS011;5280;42.600;23.556;2023-09-30T09:07:29;12.77;;;8.17;;
10465;SDS011;5280;42.600;23.556;2023-09-30T09:10:03;13.73;;;5.70;;
10465;SDS011;5280;42.600;23.556;2023-09-30T09:12:31;13.70;;;7.33;;
10465;SDS011;5280;42.600;23.556;2023-09-30T09:14:59;6.97;;;4.77;;
10465;SDS011;5280;42.600;23.556;2023-09-30T09:17:39;10.27;;;5.13;;
10465;SDS011;5280;42.600;23.556;2023-09-30T09:20:07;9.23;;;5.50;;
10465;SDS011;5280;42.600;23.556;2023-09-30T09:22:40;10.50;;;5.00;;
10465;SDS011;5280;42.600;23.556;2023-09-30T09:25:08;10.73;;;5.03;;
10465;SDS011;5280;42.600;23.556;2023-09-30T09:27:35;11.17;;;4.70;;
10465;SDS011;5280;42.600;23.556;2023-09-30T09:30:15;12.43;;;4.57;;
10465;SDS011;5280;42.600;23.556;2023-09-30T09:32:52;5.30;;;4.00;;
10465;SDS011;5280;42.600;23.556;2023-09-30T09:35:20;6.68;;;4.40;;
10465;SDS011;5280;42.600;23.556;2023-09-30T09:37:55;7.97;;;4.18;;
10465;SDS011;5280;42.600;23.556;2023-09-30T09:40:23;7.10;;;4.45;;
10465;SDS011;5280;42.600;23.556;2023-09-30T09:42:51;6.30;;;4.53;;
10465;SDS011;5280;42.600;23.556;2023-09-30T09:45:20;8.82;;;4.70;;
10465;SDS011;5280;42.600;23.556;2023-09-30T09:47:48;8.30;;;4.65;;
10465;SDS011;5280;42.600;23.556;2023-09-30T09:50:16;7.90;;;4.93;;
10465;SDS011;5280;42.600;23.556;2023-09-30T09:52:45;11.65;;;4.50;;
10465;SDS011;5280;42.600;23.556;2023-09-30T09:55:17;7.72;;;4.75;;
10465;SDS011;5280;42.600;23.556;2023-09-30T09:57:44;6.97;;;4.55;;
10465;SDS011;5280;42.600;23.556;2023-09-30T10:00:12;6.97;;;4.37;;
10465;SDS011;5280;42.600;23.556;2023-09-30T10:02:41;8.95;;;3.92;;
10465;SDS011;5280;42.600;23.556;2023-09-30T10:05:08;10.95;;;4.35;;
10465;SDS011;5280;42.600;23.556;2023-09-30T10:07:38;6.77;;;3.90;;
10465;SDS011;5280;42.600;23.556;2023-09-30T10:10:14;8.80;;;3.83;;
10465;SDS011;5280;42.600;23.556;2023-09-30T10:12:44;7.65;;;4.15;;
10465;SDS011;5280;42.600;23.556;2023-09-30T10:18:06;7.83;;;4.00;;
10465;SDS011;5280;42.600;23.556;2023-09-30T10:20:35;8.02;;;5.40;;
10465;SDS011;5280;42.600;23.556;2023-09-30T10:23:19;4.07;;;3.20;;
10465;SDS011;5280;42.600;23.556;2023-09-30T10:28:54;4.93;;;2.80;;
10465;SDS011;5280;42.600;23.556;2023-09-30T10:31:21;6.27;;;2.90;;
10465;SDS011;5280;42.600;23.556;2023-09-30T10:36:44;8.17;;;3.20;;
10465;SDS011;5280;42.600;23.556;2023-09-30T10:39:12;5.40;;;3.10;;
10465;SDS011;5280;42.600;23.556;2023-09-30T10:41:49;5.53;;;3.10;;
10465;SDS011;5280;42.600;23.556;2023-09-30T10:44:36;4.73;;;3.13;;
10465;SDS011;5280;42.600;23.556;2023-09-30T10:50:04;3.40;;;3.10;;
10465;SDS011;5280;42.600;23.556;2023-09-30T10:53:03;3.10;;;2.70;;
10465;SDS011;5280;42.600;23.556;2023-09-30T10:55:32;3.75;;;2.88;;
10465;SDS011;5280;42.600;23.556;2023-09-30T10:57:59;4.83;;;3.30;;
10465;SDS011;5280;42.600;23.556;2023-09-30T11:00:27;5.80;;;3.40;;
10465;SDS011;5280;42.600;23.556;2023-09-30T11:02:55;8.47;;;3.73;;
10465;SDS011;5280;42.600;23.556;2023-09-30T11:05:22;7.33;;;3.13;;
10465;SDS011;5280;42.600;23.556;2023-09-30T11:07:49;6.00;;;3.33;;
10465;SDS011;5280;42.600;23.556;2023-09-30T11:10:18;4.70;;;3.20;;
10465;SDS011;5280;42.600;23.556;2023-09-30T11:12:54;6.27;;;3.60;;
10465;SDS011;5280;42.600;23.556;2023-09-30T11:15:22;10.00;;;3.70;;
10465;SDS011;5280;42.600;23.556;2023-09-30T11:17:52;7.50;;;3.77;;
10465;SDS011;5280;42.600;23.556;2023-09-30T11:20:19;7.60;;;6.83;;
10465;SDS011;5280;42.600;23.556;2023-09-30T11:22:46;8.40;;;6.00;;
10465;SDS011;5280;42.600;23.556;2023-09-30T11:25:17;6.20;;;3.87;;
10465;SDS011;5280;42.600;23.556;2023-09-30T11:27:44;5.87;;;3.80;;
10465;SDS011;5280;42.600;23.556;2023-09-30T11:30:12;7.03;;;4.50;;
10465;SDS011;5280;42.600;23.556;2023-09-30T11:32:39;7.97;;;4.53;;
10465;SDS011;5280;42.600;23.556;2023-09-30T11:35:09;5.95;;;4.95;;
10465;SDS011;5280;42.600;23.556;2023-09-30T11:37:47;8.37;;;3.80;;
10465;SDS011;5280;42.600;23.556;2023-09-30T11:40:14;9.25;;;4.68;;
10465;SDS011;5280;42.600;23.556;2023-09-30T11:42:41;9.10;;;4.40;;
10465;SDS011;5280;42.600;23.556;2023-09-30T11:45:20;4.73;;;4.03;;
10465;SDS011;5280;42.600;23.556;2023-09-30T11:47:47;6.60;;;4.53;;
10465;SDS011;5280;42.600;23.556;2023-09-30T11:50:16;7.67;;;3.77;;
10465;SDS011;5280;42.600;23.556;2023-09-30T11:52:44;7.00;;;4.30;;
10465;SDS011;5280;42.600;23.556;2023-09-30T11:55:11;4.33;;;3.93;;
10465;SDS011;5280;42.600;23.556;2023-09-30T11:57:39;7.95;;;4.25;;
10465;SDS011;5280;42.600;23.556;2023-09-30T12:00:07;6.10;;;4.17;;
10465;SDS011;5280;42.600;23.556;2023-09-30T12:02:38;5.17;;;4.30;;
10465;SDS011;5280;42.600;23.556;2023-09-30T12:05:07;7.20;;;4.13;;
10465;SDS011;5280;42.600;23.556;2023-09-30T12:07:38;6.20;;;4.00;;
10465;SDS011;5280;42.600;23.556;2023-09-30T12:10:07;6.57;;;4.40;;
10465;SDS011;5280;42.600;23.556;2023-09-30T12:12:34;9.63;;;5.10;;
10465;SDS011;5280;42.600;23.556;2023-09-30T12:15:00;4.75;;;4.18;;
10465;SDS011;5280;42.600;23.556;2023-09-30T12:17:28;8.53;;;4.27;;
10465;SDS011;5280;42.600;23.556;2023-09-30T12:19:55;8.53;;;4.07;;
10465;SDS011;5280;42.600;23.556;2023-09-30T12:22:21;7.40;;;4.20;;
10465;SDS011;5280;42.600;23.556;2023-09-30T12:24:50;10.63;;;4.10;;
10465;SDS011;5280;42.600;23.556;2023-09-30T12:27:17;7.65;;;4.38;;
10465;SDS011;5280;42.600;23.556;2023-09-30T12:29:44;9.63;;;3.80;;
10465;SDS011;5280;42.600;23.556;2023-09-30T12:32:13;5.97;;;4.50;;
10465;SDS011;5280;42.600;23.556;2023-09-30T12:34:40;7.10;;;4.40;;
10465;SDS011;5280;42.600;23.556;2023-09-30T12:37:07;4.72;;;3.88;;
10465;SDS011;5280;42.600;23.556;2023-09-30T12:39:33;9.63;;;4.27;;
10465;SDS011;5280;42.600;23.556;2023-09-30T12:42:03;5.83;;;3.90;;
10465;SDS011;5280;42.600;23.556;2023-09-30T12:44:34;4.30;;;3.90;;
10465;SDS011;5280;42.600;23.556;2023-09-30T12:47:00;6.00;;;3.70;;
10465;SDS011;5280;42.600;23.556;2023-09-30T12:49:28;3.83;;;3.43;;
10465;SDS011;5280;42.600;23.556;2023-09-30T12:51:55;5.20;;;3.57;;
10465;SDS011;5280;42.600;23.556;2023-09-30T12:54:23;10.68;;;4.00;;
10465;SDS011;5280;42.600;23.556;2023-09-30T12:56:50;6.38;;;4.07;;
10465;SDS011;5280;42.600;23.556;2023-09-30T12:59:17;7.10;;;3.57;;
10465;SDS011;5280;42.600;23.556;2023-09-30T13:01:45;5.40;;;3.90;;
10465;SDS011;5280;42.600;23.556;2023-09-30T13:04:13;6.87;;;3.33;;
10465;SDS011;5280;42.600;23.556;2023-09-30T13:06:39;5.33;;;3.80;;
10465;SDS011;5280;42.600;23.556;2023-09-30T13:09:06;6.03;;;3.43;;
10465;SDS011;5280;42.600;23.556;2023-09-30T13:11:33;5.22;;;3.60;;
10465;SDS011;5280;42.600;23.556;2023-09-30T13:14:00;6.53;;;3.65;;
10465;SDS011;5280;42.600;23.556;2023-09-30T13:16:28;11.47;;;3.90;;
10465;SDS011;5280;42.600;23.556;2023-09-30T13:18:55;5.57;;;3.50;;
10465;SDS011;5280;42.600;23.556;2023-09-30T13:21:22;6.40;;;4.38;;
10465;SDS011;5280;42.600;23.556;2023-09-30T13:23:49;11.47;;;7.03;;
10465;SDS011;5280;42.600;23.556;2023-09-30T13:26:17;7.03;;;5.40;;
10465;SDS011;5280;42.600;23.556;2023-09-30T13:28:44;4.47;;;3.57;;
10465;SDS011;5280;42.600;23.556;2023-09-30T13:31:11;6.20;;;5.70;;
10465;SDS011;5280;42.600;23.556;2023-09-30T13:33:39;9.50;;;6.00;;
10465;SDS011;5280;42.600;23.556;2023-09-30T13:36:06;7.00;;;3.87;;
10465;SDS011;5280;42.600;23.556;2023-09-30T13:38:32;7.03;;;3.43;;
10465;SDS011;5280;42.600;23.556;2023-09-30T13:40:59;6.97;;;3.67;;
10465;SDS011;5280;42.600;23.556;2023-09-30T13:43:26;6.67;;;3.63;;
10465;SDS011;5280;42.600;23.556;2023-09-30T13:45:53;9.25;;;3.78;;
10465;SDS011;5280;42.600;23.556;2023-09-30T13:48:21;12.57;;;3.67;;
10465;SDS011;5280;42.600;23.556;2023-09-30T13:50:49;5.47;;;3.60;;
10465;SDS011;5280;42.600;23.556;2023-09-30T13:53:16;5.20;;;3.63;;
10465;SDS011;5280;42.600;23.556;2023-09-30T13:55:43;6.80;;;3.90;;
10465;SDS011;5280;42.600;23.556;2023-09-30T13:58:10;6.27;;;3.80;;
10465;SDS011;5280;42.600;23.556;2023-09-30T14:00:37;8.03;;;3.93;;
10465;SDS011;5280;42.600;23.556;2023-09-30T14:03:04;6.83;;;4.70;;
10465;SDS011;5280;42.600;23.556;2023-09-30T14:05:32;7.23;;;4.07;;
10465;SDS011;5280;42.600;23.556;2023-09-30T14:08:00;9.63;;;4.13;;
10465;SDS011;5280;42.600;23.556;2023-09-30T14:10:28;8.27;;;3.60;;
10465;SDS011;5280;42.600;23.556;2023-09-30T14:12:55;7.57;;;3.60;;
10465;SDS011;5280;42.600;23.556;2023-09-30T14:15:22;5.87;;;3.77;;
10465;SDS011;5280;42.600;23.556;2023-09-30T14:17:53;6.53;;;4.63;;
10465;SDS011;5280;42.600;23.556;2023-09-30T14:20:20;32.57;;;22.40;;
10465;SDS011;5280;42.600;23.556;2023-09-30T14:22:47;9.53;;;4.27;;
10465;SDS011;5280;42.600;23.556;2023-09-30T14:25:16;11.40;;;6.33;;
10465;SDS011;5280;42.600;23.556;2023-09-30T14:27:43;4.90;;;3.70;;
10465;SDS011;5280;42.600;23.556;2023-09-30T14:30:10;5.40;;;3.63;;
10465;SDS011;5280;42.600;23.556;2023-09-30T14:32:37;4.97;;;3.67;;
10465;SDS011;5280;42.600;23.556;2023-09-30T14:35:05;6.93;;;3.50;;
10465;SDS011;5280;42.600;23.556;2023-09-30T14:37:34;5.70;;;3.60;;
10465;SDS011;5280;42.600;23.556;2023-09-30T14:40:01;6.17;;;3.70;;
10465;SDS011;5280;42.600;23.556;2023-09-30T14:42:31;7.05;;;4.10;;
10465;SDS011;5280;42.600;23.556;2023-09-30T14:44:58;9.73;;;4.17;;
10465;SDS011;5280;42.600;23.556;2023-09-30T14:47:25;6.80;;;4.27;;
10465;SDS011;5280;42.600;23.556;2023-09-30T14:49:51;7.27;;;3.83;;
10465;SDS011;5280;42.600;23.556;2023-09-30T14:52:18;7.57;;;3.33;;
10465;SDS011;5280;42.600;23.556;2023-09-30T14:54:45;7.27;;;4.37;;
10465;SDS011;5280;42.600;23.556;2023-09-30T14:57:12;10.43;;;4.57;;
10465;SDS011;5280;42.600;23.556;2023-09-30T14:59:42;7.20;;;6.00;;
10465;SDS011;5280;42.600;23.556;2023-09-30T15:02:09;8.03;;;4.93;;
10465;SDS011;5280;42.600;23.556;2023-09-30T15:04:36;8.97;;;5.10;;